ADDS METAR Data INFO
IDs: Format: Raw Decoded Include TAF

Data at: 2306 UTC 16 Jan 2018

KUIN 162254Z AUTO 28009KT 10SM OVC016 M13/M17 A3064 RMK AO2 SLP396 T11281172
KUIN 162154Z AUTO 28010KT 10SM BKN019 M13/M18 A3064 RMK AO2 SLP394 T11281178
KUIN 162150Z AUTO 27010KT 10SM BKN019 M13/M18 A3064 RMK AO2
KUIN 162049Z AUTO 30011KT 10SM SCT014 M13/M18 A3063 RMK AO2 UPE07SNB07E25 SLP393 P0000 60000 T11331183 55007
KUIN 162048Z AUTO 29012KT 10SM SCT014 M13/M18 A3063 RMK AO2 UPE07SNB07E25 P0000
KUIN 162039Z AUTO 28011KT 10SM BKN014 BKN024 M13/M18 A3063 RMK AO2 UPE07SNB07E25 P0000 T11331178
KUIN 161954Z AUTO 28011KT 9SM UP OVC027 M14/M18 A3063 RMK AO2 UPB49SNE32 SLP392 P0000 T11391183
KUIN 161906Z AUTO 29014KT 6SM -SN SCT023 OVC029 M15/M19 A3064 RMK AO2 P0000 T11501189
KUIN 161854Z AUTO 29010KT 5SM -SN OVC030 M16/M19 A3064 RMK AO2 SNB00 SLP395 P0000 T11561189
KUIN 161832Z AUTO 28013KT 5SM -SN OVC030 M16/M19 A3064 RMK AO2 SNB00 P0000 T11561194
KUIN 161754Z AUTO 30010KT 10SM OVC026 M16/M21 A3066 RMK AO2 SNB13E30 SLP401 P0000 60000 T11611206 11161 21211 50003
KUIN 161713Z AUTO 29010KT 10SM -SN BKN025 M17/M21 A3066 RMK AO2 SNB13 P0000 T11721211
KUIN 161654Z AUTO 28011KT 10SM CLR M18/M22 A3066 RMK AO2 SLP403 T11781217
KUIN 161554Z AUTO 29010KT 10SM BKN060 M19/M23 A3066 RMK AO2 SNE11 SLP404 P0000 T11891228
KUIN 161454Z AUTO 28013KT 3SM -SN SCT030 OVC055 M20/M23 A3065 RMK AO2 SNB34 SLP398 P0000 60000 T12001233 51008
KUIN 161450Z AUTO 28009KT 2 1/2SM -SN BKN030 BKN049 OVC055 M20/M24 A3065 RMK AO2 SNB34 P0000
KUIN 161354Z AUTO 28007KT 10SM CLR M21/M24 A3064 RMK AO2 SLP396 T12111244
KUIN 161254Z AUTO 29008KT 10SM CLR M21/M24 A3062 RMK AO2 SLP390 T12061244
KUIN 161154Z AUTO 29011KT 10SM CLR M21/M24 A3060 RMK AO2 SLP382 T12061244 11183 21206 53008 $
KUIN 161054Z AUTO 29012KT 10SM CLR M20/M24 A3059 RMK AO2 SLP378 T12001239 $
KUIN 160954Z AUTO 29011KT 10SM CLR M19/M23 A3058 RMK AO2 SLP374 T11941233 $
KUIN 160854Z AUTO 29012KT 10SM CLR M19/M23 A3057 RMK AO2 SLP372 T11941233 55002 $
KUIN 160754Z AUTO 30012KT 10SM CLR M19/M23 A3057 RMK AO2 SLP370 T11891228 $
KUIN 160654Z AUTO 29010KT 10SM CLR M19/M23 A3057 RMK AO2 SLP371 T11891228 $
KUIN 160554Z AUTO 29011KT 10SM CLR M18/M22 A3058 RMK AO2 SLP373 T11831222 11150 21183 410171183 52005 $
KUIN 160454Z AUTO 30014KT 10SM FEW019 M18/M22 A3057 RMK AO2 SLP369 T11781222 $
KUIN 160451Z AUTO 30015KT 10SM SCT019 M18/M22 A3057 RMK AO2 $
KUIN 160419Z AUTO 29011KT 10SM BKN020 M17/M22 A3057 RMK AO2 T11721217 $
KUIN 160403Z AUTO 30014G23KT 10SM FEW018 M17/M22 A3057 RMK AO2 T11721217 $
KUIN 160354Z AUTO 30017G22KT 10SM BKN018 M17/M22 A3056 RMK AO2 SLP366 T11721217 $
KUIN 160323Z AUTO 30015KT 10SM BKN020 M17/M22 A3056 RMK AO2 T11671217 $
KUIN 160254Z AUTO 30015G23KT 10SM CLR M17/M22 A3055 RMK AO2 SLP361 T11671217 51019 $
KUIN 160154Z AUTO 30014KT 10SM CLR M16/M21 A3053 RMK AO2 SLP357 T11611211 $
KUIN 160054Z AUTO 30015KT 10SM CLR M16/M21 A3052 RMK AO2 SLP352 T11561206 $
KUIN 152354Z AUTO 30012KT 10SM CLR M15/M20 A3049 RMK AO2 SLP340 T11501200 11117 21150 51029 $
KUIN 152254Z AUTO 31010KT 10SM CLR M14/M19 A3047 RMK AO2 SLP331 T11441194 $
KUIN 152154Z AUTO 31015KT 10SM CLR M13/M19 A3043 RMK AO2 SLP318 T11331189 $
KUIN 152054Z AUTO 30018KT 10SM SCT044 M13/M19 A3040 RMK AO2 SLP307 T11281194 53008 $
KUIN 152030Z AUTO 30017KT 10SM FEW023 BKN034 M13/M19 A3039 RMK AO2 T11281194 $
KUIN 151954Z AUTO 31017KT 10SM BKN024 M12/M19 A3038 RMK AO2 SLP300 T11221189 $
KUIN 151854Z AUTO 29016G24KT 10SM OVC026 M12/M18 A3037 RMK AO2 SLP294 T11171178 $
KUIN 151754Z AUTO 30017KT 6SM HZ SCT021 BKN027 M12/M18 A3038 RMK AO2 PK WND 29028/1719 SLP299 60000 T11221178 11078 21133 51014 $
KUIN 151654Z AUTO 30018KT 10SM BKN022 M12/M17 A3037 RMK AO2 SLP299 T11171167 $
KUIN 151554Z AUTO 30017KT 10SM BKN021 OVC025 M12/M17 A3036 RMK AO2 SLP292 T11221167 $
KUIN 151511Z AUTO 29017KT 10SM BKN019 M12/M17 A3034 RMK AO2 T11221172 $
KUIN 151454Z AUTO 29016KT 10SM SCT017 M13/M17 A3034 RMK AO2 SLP285 60000 T11281167 51017 $
KUIN 151449Z AUTO 30013KT 10SM SCT017 M13/M17 A3033 RMK AO2 $
KUIN 151436Z AUTO 30016KT 10SM BKN016 M13/M17 A3032 RMK AO2 T11281172 $
KUIN 151354Z AUTO 30011KT 10SM CLR M13/M17 A3031 RMK AO2 SLP275 T11331172 $
KUIN 151254Z AUTO 30019KT 10SM FEW009 SCT038 M13/M17 A3028 RMK AO2 PK WND 32034/1205 UPB03E44 SLP267 P0000 T11281167 $
KUIN 151235Z AUTO 31022G28KT 10SM UP SCT009 OVC036 M11/M15 A3026 RMK AO2 PK WND 32034/1205 UPB03 P0000 T11111150 $
KUIN 151154Z AUTO 32023G31KT 10SM OVC031 M08/M12 A3022 RMK AO2 PK WND 30032/1101 UPB03E35 SLP244 P0000 60001 70005 T10781122 11017 21078 53033 $